createdAt,value
2023-02-12T00:00:58.419Z,9.64
2023-02-12T00:06:03.013Z,9.61
2023-02-12T00:11:10.369Z,9.62
2023-02-12T00:16:15.227Z,9.58
2023-02-12T00:21:19.313Z,9.60
2023-02-12T00:26:22.851Z,9.49
2023-02-12T00:31:29.294Z,9.58
2023-02-12T00:36:36.295Z,9.63
2023-02-12T00:41:38.926Z,9.60
2023-02-12T00:46:41.884Z,9.46
2023-02-12T00:51:46.236Z,9.40
2023-02-12T00:56:49.218Z,9.40
2023-02-12T01:01:52.650Z,9.50
2023-02-12T01:06:56.607Z,9.54
2023-02-12T01:11:59.462Z,9.52
2023-02-12T01:17:02.124Z,9.32
2023-02-12T01:22:06.062Z,9.52
2023-02-12T01:27:08.617Z,9.46
2023-02-12T01:32:11.323Z,9.52
2023-02-12T01:37:15.289Z,9.55
2023-02-12T01:42:18.827Z,9.54
2023-02-12T01:47:21.399Z,9.53
2023-02-12T01:52:31.274Z,9.54
2023-02-12T01:57:36.970Z,8.99
2023-02-12T02:02:40.682Z,9.28
2023-02-12T02:07:46.319Z,9.29
2023-02-12T02:13:06.814Z,9.30
2023-02-12T02:18:17.076Z,8.80
2023-02-12T02:23:48.742Z,9.38
2023-02-12T02:29:05.473Z,9.31
2023-02-12T02:34:13.229Z,9.39
2023-02-12T02:39:25.852Z,9.39
2023-02-12T02:44:36.414Z,9.40
2023-02-12T02:49:45.633Z,9.40
2023-02-12T02:54:53.662Z,9.38
2023-02-12T03:00:00.242Z,9.38
2023-02-12T03:05:10.284Z,9.34
2023-02-12T03:10:17.136Z,9.41
2023-02-12T03:15:25.642Z,9.41
2023-02-12T03:20:34.338Z,9.33
2023-02-12T03:25:41.671Z,9.32
2023-02-12T03:30:49.637Z,9.28
2023-02-12T03:36:00.583Z,9.24
2023-02-12T03:41:07.675Z,9.30
2023-02-12T03:46:18.836Z,9.28
2023-02-12T03:51:26.385Z,9.29
2023-02-12T03:56:36.088Z,9.21
2023-02-12T04:01:38.951Z,9.24
2023-02-12T04:06:43.323Z,9.25
2023-02-12T04:12:03.425Z,9.14
2023-02-12T04:17:13.727Z,9.15
2023-02-12T04:22:28.935Z,9.18
2023-02-12T04:27:38.974Z,9.24
2023-02-12T04:32:47.754Z,9.23
2023-02-12T04:37:55.887Z,9.10
2023-02-12T04:42:58.459Z,9.07
2023-02-12T04:48:01.774Z,9.22
2023-02-12T04:53:05.660Z,9.18
2023-02-12T04:58:08.947Z,9.07
2023-02-12T05:03:11.538Z,9.19
2023-02-12T05:08:15.437Z,9.10
2023-02-12T05:13:17.986Z,9.00
2023-02-12T05:18:20.873Z,9.02
2023-02-12T05:23:27.073Z,9.02
2023-02-12T05:28:30.534Z,9.10
2023-02-12T05:33:33.957Z,9.14
2023-02-12T05:38:38.013Z,8.98
2023-02-12T05:43:41.206Z,9.05
2023-02-12T05:48:43.762Z,9.00
2023-02-12T05:53:47.683Z,9.04
2023-02-12T05:58:54.511Z,8.98
2023-02-12T06:03:57.310Z,9.03
2023-02-12T06:09:02.028Z,8.99
2023-02-12T06:14:04.720Z,8.95
2023-02-12T06:19:07.809Z,8.85
2023-02-12T06:24:12.702Z,8.88
2023-02-12T06:29:15.468Z,8.86
2023-02-12T06:34:18.515Z,8.65
2023-02-12T06:39:22.411Z,8.76
2023-02-12T06:44:25.027Z,8.74
2023-02-12T06:49:27.599Z,8.85
2023-02-12T06:54:32.024Z,8.90
2023-02-12T06:59:34.571Z,8.93
2023-02-12T07:04:38.979Z,8.92
2023-02-12T07:09:42.870Z,8.90
2023-02-12T07:14:45.526Z,8.96
2023-02-12T07:19:48.069Z,8.86
2023-02-12T07:24:52.766Z,8.97
2023-02-12T07:29:55.325Z,8.96
2023-02-12T07:34:58.321Z,8.94
2023-02-12T07:40:02.266Z,9.04
2023-02-12T07:45:05.144Z,9.06
2023-02-12T07:50:08.455Z,9.08
2023-02-12T07:55:12.501Z,8.94
2023-02-12T08:00:16.384Z,8.82
2023-02-12T08:05:19.068Z,8.79
2023-02-12T08:10:23.579Z,9.01
2023-02-12T08:15:26.129Z,9.10
2023-02-12T08:20:28.675Z,9.23
2023-02-12T08:25:32.571Z,9.27
2023-02-12T08:30:35.120Z,9.30
2023-02-12T08:35:37.710Z,9.35
2023-02-12T08:40:41.616Z,9.42
2023-02-12T08:45:44.223Z,9.45
2023-02-12T08:50:47.336Z,9.57
2023-02-12T08:55:51.482Z,9.21
2023-02-12T09:00:54.329Z,9.71
2023-02-12T09:05:57.164Z,9.76
2023-02-12T09:11:01.258Z,9.86
2023-02-12T09:16:05.570Z,9.92
2023-02-12T09:21:10.628Z,9.67
2023-02-12T09:26:16.883Z,9.80
2023-02-12T09:31:23.098Z,9.93
2023-02-12T09:36:26.074Z,10.02
2023-02-12T09:42:07.007Z,10.14
2023-02-12T09:47:16.492Z,10.21
2023-02-12T09:52:22.886Z,10.33
2023-02-12T09:57:31.131Z,10.41
2023-02-12T10:02:36.050Z,10.51
2023-02-12T10:07:58.781Z,10.57
2023-02-12T10:13:06.177Z,10.65
2023-02-12T10:18:35.724Z,10.72
2023-02-12T10:23:54.049Z,10.83
2023-02-12T10:29:01.632Z,10.85
2023-02-12T10:34:17.597Z,10.97
2023-02-12T10:39:24.861Z,10.95
2023-02-12T10:44:29.128Z,11.07
2023-02-12T10:49:33.397Z,11.11
2023-02-12T10:54:40.062Z,11.10
2023-02-12T10:59:45.508Z,11.13
2023-02-12T11:04:48.229Z,11.18
2023-02-12T11:09:52.837Z,11.20
2023-02-12T11:15:00.696Z,11.22
2023-02-12T11:20:09.635Z,11.20
2023-02-12T11:25:16.928Z,10.85
2023-02-12T11:30:22.294Z,11.05
2023-02-12T11:35:28.318Z,10.99
2023-02-12T11:40:33.938Z,10.97
2023-02-12T11:45:44.543Z,11.08
2023-02-12T11:50:49.573Z,11.17
2023-02-12T11:55:58.417Z,11.02
2023-02-12T12:01:09.545Z,11.34
2023-02-12T12:06:25.157Z,11.28
2023-02-12T12:11:33.735Z,11.21
2023-02-12T12:17:00.540Z,11.15
2023-02-12T12:22:10.360Z,11.23
2023-02-12T12:27:45.809Z,11.28
2023-02-12T12:32:55.056Z,11.33
2023-02-12T12:38:04.608Z,11.26
2023-02-12T12:43:20.741Z,11.22
2023-02-12T12:48:36.390Z,11.28
2023-02-12T12:53:53.997Z,11.34
2023-02-12T12:59:13.974Z,11.34
2023-02-12T13:04:40.961Z,11.45
2023-02-12T13:09:54.879Z,11.20
2023-02-12T13:15:03.936Z,11.42
2023-02-12T13:20:15.650Z,11.38
2023-02-12T13:25:24.842Z,11.38
2023-02-12T13:30:32.658Z,10.96
2023-02-12T13:35:41.380Z,11.27
2023-02-12T13:40:44.302Z,11.22
2023-02-12T13:45:53.750Z,11.22
2023-02-12T13:51:05.370Z,11.24
2023-02-12T13:56:18.470Z,11.24
2023-02-12T14:01:45.819Z,11.02
2023-02-12T14:07:01.323Z,11.16
2023-02-12T14:12:07.591Z,11.10
2023-02-12T14:17:42.986Z,11.01
2023-02-12T14:23:02.239Z,11.03
2023-02-12T14:28:13.432Z,11.00
2023-02-12T14:33:26.580Z,11.03
2023-02-12T14:39:02.086Z,10.89
2023-02-12T14:44:45.482Z,10.88
2023-02-12T14:49:51.329Z,10.88
2023-02-12T14:54:57.375Z,10.80
2023-02-12T15:00:04.113Z,10.74
2023-02-12T15:05:16.957Z,10.81
2023-02-12T15:10:23.750Z,10.83
2023-02-12T15:15:32.416Z,10.75
2023-02-12T15:20:39.920Z,10.71
2023-02-12T15:25:44.506Z,10.66
2023-02-12T15:30:47.426Z,10.67
2023-02-12T15:35:50.061Z,10.66
2023-02-12T15:40:59.733Z,10.62
2023-02-12T15:46:03.855Z,10.65
2023-02-12T15:51:15.219Z,10.63
2023-02-12T15:56:21.368Z,10.50
2023-02-12T16:01:25.850Z,10.51
2023-02-12T16:06:31.684Z,10.54
2023-02-12T16:11:37.747Z,10.58
2023-02-12T16:16:44.965Z,10.54
2023-02-12T16:21:50.100Z,10.58
2023-02-12T16:26:55.058Z,10.51
2023-02-12T16:32:00.435Z,10.42
2023-02-12T16:37:24.713Z,10.37
2023-02-12T16:42:29.507Z,10.32
2023-02-12T16:47:32.403Z,10.32
2023-02-12T16:52:39.542Z,10.28
2023-02-12T16:57:43.956Z,10.18
2023-02-12T17:02:47.189Z,10.15
2023-02-12T17:07:51.642Z,10.09
2023-02-12T17:12:55.528Z,10.17
2023-02-12T17:17:58.114Z,10.26
2023-02-12T17:23:00.830Z,10.06
2023-02-12T17:28:05.073Z,10.16
2023-02-12T17:33:07.764Z,10.22
2023-02-12T17:38:10.360Z,10.24
2023-02-12T17:43:14.442Z,10.24
2023-02-12T17:48:18.288Z,10.25
2023-02-12T17:53:20.932Z,10.29
2023-02-12T17:58:24.994Z,10.19
2023-02-12T18:03:27.621Z,10.24
2023-02-12T18:08:32.043Z,10.27
2023-02-12T18:13:36.278Z,10.24
2023-02-12T18:18:39.984Z,10.22
2023-02-12T18:23:43.575Z,9.83
2023-02-12T18:28:47.925Z,10.06
2023-02-12T18:33:50.871Z,10.23
2023-02-12T18:38:54.312Z,10.24
2023-02-12T18:43:59.578Z,10.24
2023-02-12T18:49:02.733Z,10.22
2023-02-12T18:54:07.763Z,10.22
2023-02-12T18:59:15.280Z,10.23
2023-02-12T19:04:20.061Z,10.11
2023-02-12T19:09:24.662Z,10.07
2023-02-12T19:14:29.167Z,10.06
2023-02-12T19:19:34.745Z,10.07
2023-02-12T19:24:46.726Z,10.06
2023-02-12T19:29:51.234Z,10.11
2023-02-12T19:34:54.294Z,10.07
2023-02-12T19:39:56.840Z,10.09
2023-02-12T19:45:00.755Z,10.05
2023-02-12T19:50:04.432Z,10.06
2023-02-12T19:55:07.379Z,10.06
2023-02-12T20:00:12.939Z,10.04
2023-02-12T20:05:16.044Z,10.05
2023-02-12T20:10:19.022Z,10.02
2023-02-12T20:15:25.346Z,10.06
2023-02-12T20:20:27.910Z,10.06
2023-02-12T20:25:31.087Z,9.97
2023-02-12T20:30:34.994Z,9.94
2023-02-12T20:35:38.591Z,10.04
2023-02-12T20:40:41.151Z,10.04
2023-02-12T20:45:45.361Z,10.03
2023-02-12T20:50:47.939Z,10.05
2023-02-12T20:55:51.031Z,10.02
2023-02-12T21:00:55.258Z,10.04
2023-02-12T21:05:58.219Z,10.05
2023-02-12T21:11:02.233Z,9.94
2023-02-12T21:16:09.668Z,9.87
2023-02-12T21:21:14.142Z,9.66
2023-02-12T21:26:18.852Z,9.71
2023-02-12T21:31:25.146Z,9.66
2023-02-12T21:36:30.402Z,9.86
2023-02-12T21:41:35.838Z,9.92
2023-02-12T21:46:40.099Z,9.99
2023-02-12T21:51:44.760Z,10.03
2023-02-12T21:56:49.490Z,10.11
2023-02-12T22:01:55.205Z,10.11
2023-02-12T22:07:02.808Z,10.17
2023-02-12T22:12:05.963Z,10.15
2023-02-12T22:17:09.922Z,10.14
2023-02-12T22:22:14.600Z,10.10
2023-02-12T22:27:17.168Z,10.18
2023-02-12T22:32:21.165Z,10.18
2023-02-12T22:37:23.842Z,10.08
2023-02-12T22:42:26.547Z,10.23
2023-02-12T22:47:32.092Z,10.19
2023-02-12T22:52:34.862Z,10.23
2023-02-12T22:57:37.506Z,10.18
2023-02-12T23:02:41.763Z,10.24
2023-02-12T23:07:44.362Z,10.25
2023-02-12T23:12:46.952Z,10.23
2023-02-12T23:17:51.736Z,10.18
2023-02-12T23:22:54.352Z,10.24
2023-02-12T23:27:56.907Z,10.20
2023-02-12T23:33:00.918Z,10.25
2023-02-12T23:38:04.231Z,10.26
2023-02-12T23:43:06.826Z,10.28
2023-02-12T23:48:10.782Z,10.22
2023-02-12T23:53:13.792Z,10.16
2023-02-12T23:58:16.346Z,10.26
